sensor_id;sensor_type;location;lat;lon;timestamp;pressure;altitude;pressure_sealevel;temperature;humidity
21109;BME280;10712;52.944;9.098;2022-08-21T00:02:03;101542.94;;;23.26;47.22
21109;BME280;10712;52.944;9.098;2022-08-21T00:04:30;101543.50;;;23.29;47.13
21109;BME280;10712;52.944;9.098;2022-08-21T00:06:57;101538.06;;;23.29;47.20
21109;BME280;10712;52.944;9.098;2022-08-21T00:09:24;101534.59;;;23.37;47.10
21109;BME280;10712;52.944;9.098;2022-08-21T00:11:50;101521.38;;;23.42;47.19
21109;BME280;10712;52.944;9.098;2022-08-21T00:14:16;101523.63;;;23.46;46.86
21109;BME280;10712;52.944;9.098;2022-08-21T00:16:42;101527.34;;;23.45;46.78
21109;BME280;10712;52.944;9.098;2022-08-21T00:19:08;101527.69;;;23.42;46.72
21109;BME280;10712;52.944;9.098;2022-08-21T00:21:35;101535.13;;;23.40;46.70
21109;BME280;10712;52.944;9.098;2022-08-21T00:24:01;101533.03;;;23.34;46.87
21109;BME280;10712;52.944;9.098;2022-08-21T00:26:27;101532.16;;;23.34;46.84
21109;BME280;10712;52.944;9.098;2022-08-21T00:28:53;101531.16;;;23.35;46.79
21109;BME280;10712;52.944;9.098;2022-08-21T00:31:19;101520.53;;;23.41;46.70
21109;BME280;10712;52.944;9.098;2022-08-21T00:33:45;101536.28;;;23.38;46.87
21109;BME280;10712;52.944;9.098;2022-08-21T00:36:12;101527.59;;;23.34;46.61
21109;BME280;10712;52.944;9.098;2022-08-21T00:38:39;101526.44;;;23.37;46.82
21109;BME280;10712;52.944;9.098;2022-08-21T00:41:08;101524.25;;;23.40;46.85
21109;BME280;10712;52.944;9.098;2022-08-21T00:43:38;101527.34;;;23.45;46.77
21109;BME280;10712;52.944;9.098;2022-08-21T00:46:05;101535.25;;;23.48;46.72
21109;BME280;10712;52.944;9.098;2022-08-21T00:48:33;101525.38;;;23.47;46.48
21109;BME280;10712;52.944;9.098;2022-08-21T00:51:10;101529.06;;;23.46;46.67
21109;BME280;10712;52.944;9.098;2022-08-21T00:53:43;101522.78;;;23.46;46.30
21109;BME280;10712;52.944;9.098;2022-08-21T00:56:11;101524.09;;;23.42;46.30
21109;BME280;10712;52.944;9.098;2022-08-21T00:58:42;101527.13;;;23.39;46.21
21109;BME280;10712;52.944;9.098;2022-08-21T01:01:09;101528.31;;;23.36;46.14
21109;BME280;10712;52.944;9.098;2022-08-21T01:03:35;101525.47;;;23.28;46.35
21109;BME280;10712;52.944;9.098;2022-08-21T01:06:02;101529.09;;;23.19;46.32
21109;BME280;10712;52.944;9.098;2022-08-21T01:08:31;101523.56;;;23.11;46.46
21109;BME280;10712;52.944;9.098;2022-08-21T01:10:59;101525.91;;;23.06;46.85
21109;BME280;10712;52.944;9.098;2022-08-21T01:13:29;101518.03;;;23.03;46.84
21109;BME280;10712;52.944;9.098;2022-08-21T01:15:59;101529.22;;;23.00;46.99
21109;BME280;10712;52.944;9.098;2022-08-21T01:18:27;101530.22;;;22.99;46.86
21109;BME280;10712;52.944;9.098;2022-08-21T01:21:16;101532.22;;;22.97;46.95
21109;BME280;10712;52.944;9.098;2022-08-21T01:23:50;101533.66;;;23.01;46.97
21109;BME280;10712;52.944;9.098;2022-08-21T01:26:24;101530.06;;;23.00;47.42
21109;BME280;10712;52.944;9.098;2022-08-21T01:29:03;101528.50;;;22.98;47.40
21109;BME280;10712;52.944;9.098;2022-08-21T01:31:31;101536.97;;;22.95;47.36
21109;BME280;10712;52.944;9.098;2022-08-21T01:33:59;101532.81;;;22.91;47.38
21109;BME280;10712;52.944;9.098;2022-08-21T01:36:26;101531.56;;;22.85;47.28
21109;BME280;10712;52.944;9.098;2022-08-21T01:38:52;101526.59;;;22.81;47.52
21109;BME280;10712;52.944;9.098;2022-08-21T01:41:18;101523.44;;;22.75;47.60
21109;BME280;10712;52.944;9.098;2022-08-21T01:43:44;101527.88;;;22.76;47.72
21109;BME280;10712;52.944;9.098;2022-08-21T01:46:12;101522.88;;;22.72;47.60
21109;BME280;10712;52.944;9.098;2022-08-21T01:48:39;101522.31;;;22.68;47.24
21109;BME280;10712;52.944;9.098;2022-08-21T01:51:05;101527.47;;;22.62;47.24
21109;BME280;10712;52.944;9.098;2022-08-21T01:53:33;101514.34;;;22.57;47.35
21109;BME280;10712;52.944;9.098;2022-08-21T01:56:03;101520.91;;;22.55;47.54
21109;BME280;10712;52.944;9.098;2022-08-21T01:58:29;101512.94;;;22.53;47.50
21109;BME280;10712;52.944;9.098;2022-08-21T02:00:55;101515.09;;;22.50;47.48
21109;BME280;10712;52.944;9.098;2022-08-21T02:03:21;101513.81;;;22.44;47.41
21109;BME280;10712;52.944;9.098;2022-08-21T02:05:47;101512.41;;;22.40;47.34
21109;BME280;10712;52.944;9.098;2022-08-21T02:08:13;101515.56;;;22.35;47.55
21109;BME280;10712;52.944;9.098;2022-08-21T02:10:39;101514.28;;;22.30;47.84
21109;BME280;10712;52.944;9.098;2022-08-21T02:13:07;101509.84;;;22.29;47.66
21109;BME280;10712;52.944;9.098;2022-08-21T02:15:34;101506.72;;;22.24;47.54
21109;BME280;10712;52.944;9.098;2022-08-21T02:18:02;101503.59;;;22.19;47.75
21109;BME280;10712;52.944;9.098;2022-08-21T02:20:38;101497.59;;;22.15;47.99
21109;BME280;10712;52.944;9.098;2022-08-21T02:23:07;101499.03;;;22.10;47.95
21109;BME280;10712;52.944;9.098;2022-08-21T02:25:34;101495.91;;;22.05;47.94
21109;BME280;10712;52.944;9.098;2022-08-21T02:28:06;101494.19;;;22.04;48.02
21109;BME280;10712;52.944;9.098;2022-08-21T02:30:41;101494.19;;;22.04;48.48
21109;BME280;10712;52.944;9.098;2022-08-21T02:33:09;101501.47;;;22.03;48.11
21109;BME280;10712;52.944;9.098;2022-08-21T02:35:37;101502.34;;;22.04;48.46
21109;BME280;10712;52.944;9.098;2022-08-21T02:38:07;101504.19;;;22.03;48.21
21109;BME280;10712;52.944;9.098;2022-08-21T02:40:37;101504.75;;;22.07;48.58
21109;BME280;10712;52.944;9.098;2022-08-21T02:43:06;101502.03;;;22.07;48.73
21109;BME280;10712;52.944;9.098;2022-08-21T02:45:34;101507.63;;;22.05;48.35
21109;BME280;10712;52.944;9.098;2022-08-21T02:48:05;101499.19;;;22.08;48.35
21109;BME280;10712;52.944;9.098;2022-08-21T02:50:36;101491.91;;;22.09;48.33
21109;BME280;10712;52.944;9.098;2022-08-21T02:53:05;101498.03;;;22.11;48.39
21109;BME280;10712;52.944;9.098;2022-08-21T02:55:34;101485.06;;;22.05;48.44
21109;BME280;10712;52.944;9.098;2022-08-21T02:58:02;101489.34;;;21.97;48.45
21109;BME280;10712;52.944;9.098;2022-08-21T03:00:30;101477.19;;;21.82;48.12
21109;BME280;10712;52.944;9.098;2022-08-21T03:02:58;101487.34;;;21.71;48.62
21109;BME280;10712;52.944;9.098;2022-08-21T03:05:27;101485.03;;;21.66;48.58
21109;BME280;10712;52.944;9.098;2022-08-21T03:07:58;101488.75;;;21.65;48.71
21109;BME280;10712;52.944;9.098;2022-08-21T03:10:25;101482.78;;;21.61;49.11
21109;BME280;10712;52.944;9.098;2022-08-21T03:12:52;101482.03;;;21.59;48.92
21109;BME280;10712;52.944;9.098;2022-08-21T03:15:21;101483.63;;;21.62;48.77
21109;BME280;10712;52.944;9.098;2022-08-21T03:17:48;101478.50;;;21.69;48.63
21109;BME280;10712;52.944;9.098;2022-08-21T03:20:17;101479.34;;;21.69;48.53
21109;BME280;10712;52.944;9.098;2022-08-21T03:22:43;101469.91;;;21.73;48.55
21109;BME280;10712;52.944;9.098;2022-08-21T03:25:10;101479.63;;;21.76;48.60
21109;BME280;10712;52.944;9.098;2022-08-21T03:27:36;101469.63;;;21.76;48.54
21109;BME280;10712;52.944;9.098;2022-08-21T03:30:06;101464.22;;;21.76;48.81
21109;BME280;10712;52.944;9.098;2022-08-21T03:32:32;101467.63;;;21.78;48.91
21109;BME280;10712;52.944;9.098;2022-08-21T03:34:59;101467.91;;;21.75;49.14
21109;BME280;10712;52.944;9.098;2022-08-21T03:37:26;101463.91;;;21.79;49.25
21109;BME280;10712;52.944;9.098;2022-08-21T03:39:53;101468.75;;;21.85;49.27
21109;BME280;10712;52.944;9.098;2022-08-21T03:42:19;101478.03;;;21.92;49.47
21109;BME280;10712;52.944;9.098;2022-08-21T03:44:45;101465.06;;;21.96;49.43
21109;BME280;10712;52.944;9.098;2022-08-21T03:47:11;101461.91;;;22.00;49.10
21109;BME280;10712;52.944;9.098;2022-08-21T03:49:37;101462.63;;;22.03;49.54
21109;BME280;10712;52.944;9.098;2022-08-21T03:52:04;101455.03;;;22.06;49.42
21109;BME280;10712;52.944;9.098;2022-08-21T03:54:30;101455.63;;;22.10;49.41
21109;BME280;10712;52.944;9.098;2022-08-21T03:56:57;101461.75;;;22.12;48.95
21109;BME280;10712;52.944;9.098;2022-08-21T03:59:23;101456.06;;;22.05;49.18
21109;BME280;10712;52.944;9.098;2022-08-21T04:01:55;101465.63;;;21.99;49.38
21109;BME280;10712;52.944;9.098;2022-08-21T04:04:22;101470.50;;;21.96;49.31
21109;BME280;10712;52.944;9.098;2022-08-21T04:06:48;101468.66;;;21.96;49.43
21109;BME280;10712;52.944;9.098;2022-08-21T04:09:16;101463.06;;;21.98;49.34
21109;BME280;10712;52.944;9.098;2022-08-21T04:11:43;101459.50;;;21.97;49.37
21109;BME280;10712;52.944;9.098;2022-08-21T04:14:09;101466.91;;;21.95;49.59
21109;BME280;10712;52.944;9.098;2022-08-21T04:16:35;101463.06;;;21.98;49.77
21109;BME280;10712;52.944;9.098;2022-08-21T04:19:01;101472.22;;;21.97;49.76
21109;BME280;10712;52.944;9.098;2022-08-21T04:21:27;101471.34;;;21.96;49.82
21109;BME280;10712;52.944;9.098;2022-08-21T04:23:57;101471.78;;;22.02;49.79
21109;BME280;10712;52.944;9.098;2022-08-21T04:26:23;101481.34;;;22.06;50.11
21109;BME280;10712;52.944;9.098;2022-08-21T04:28:49;101479.03;;;22.11;49.77
21109;BME280;10712;52.944;9.098;2022-08-21T04:31:15;101482.03;;;22.17;50.04
21109;BME280;10712;52.944;9.098;2022-08-21T04:33:41;101481.56;;;22.22;49.88
21109;BME280;10712;52.944;9.098;2022-08-21T04:36:07;101484.16;;;22.23;50.04
21109;BME280;10712;52.944;9.098;2022-08-21T04:38:33;101477.88;;;22.23;49.80
21109;BME280;10712;52.944;9.098;2022-08-21T04:40:59;101476.16;;;22.22;49.79
21109;BME280;10712;52.944;9.098;2022-08-21T04:43:25;101476.16;;;22.22;50.06
21109;BME280;10712;52.944;9.098;2022-08-21T04:45:52;101490.03;;;22.19;49.87
21109;BME280;10712;52.944;9.098;2022-08-21T04:48:21;101493.03;;;22.16;49.95
21109;BME280;10712;52.944;9.098;2022-08-21T04:53:34;101485.00;;;22.24;50.19
21109;BME280;10712;52.944;9.098;2022-08-21T04:56:07;101491.16;;;22.26;50.12
21109;BME280;10712;52.944;9.098;2022-08-21T04:58:36;101488.13;;;22.29;50.06
21109;BME280;10712;52.944;9.098;2022-08-21T05:01:06;101486.28;;;22.29;50.18
21109;BME280;10712;52.944;9.098;2022-08-21T05:03:35;101484.69;;;22.27;50.27
21109;BME280;10712;52.944;9.098;2022-08-21T05:06:06;101487.13;;;22.30;50.36
21109;BME280;10712;52.944;9.098;2022-08-21T05:08:34;101491.00;;;22.27;50.41
21109;BME280;10712;52.944;9.098;2022-08-21T05:11:00;101495.41;;;22.28;50.34
21109;BME280;10712;52.944;9.098;2022-08-21T05:13:26;101495.28;;;22.30;50.21
21109;BME280;10712;52.944;9.098;2022-08-21T05:15:52;101501.84;;;22.27;50.34
21109;BME280;10712;52.944;9.098;2022-08-21T05:18:18;101504.44;;;22.29;50.75
21109;BME280;10712;52.944;9.098;2022-08-21T05:20:44;101501.56;;;22.30;50.76
21109;BME280;10712;52.944;9.098;2022-08-21T05:23:14;101500.72;;;22.30;50.80
21109;BME280;10712;52.944;9.098;2022-08-21T05:25:40;101505.41;;;22.28;50.85
21109;BME280;10712;52.944;9.098;2022-08-21T05:28:07;101508.72;;;22.31;51.26
21109;BME280;10712;52.944;9.098;2022-08-21T05:30:34;101503.56;;;22.38;51.44
21109;BME280;10712;52.944;9.098;2022-08-21T05:33:03;101507.53;;;22.44;51.01
21109;BME280;10712;52.944;9.098;2022-08-21T05:35:33;101496.66;;;22.44;51.39
21109;BME280;10712;52.944;9.098;2022-08-21T05:38:00;101502.69;;;22.47;51.48
21109;BME280;10712;52.944;9.098;2022-08-21T05:40:27;101509.50;;;22.51;51.40
21109;BME280;10712;52.944;9.098;2022-08-21T05:42:55;101512.94;;;22.53;50.98
21109;BME280;10712;52.944;9.098;2022-08-21T05:45:27;101508.06;;;22.57;51.25
21109;BME280;10712;52.944;9.098;2022-08-21T05:47:53;101513.19;;;22.60;51.11
21109;BME280;10712;52.944;9.098;2022-08-21T05:50:20;101508.31;;;22.63;51.29
21109;BME280;10712;52.944;9.098;2022-08-21T05:52:46;101513.31;;;22.68;51.16
21109;BME280;10712;52.944;9.098;2022-08-21T05:55:12;101516.34;;;22.74;51.12
21109;BME280;10712;52.944;9.098;2022-08-21T05:57:38;101518.44;;;22.81;51.52
21109;BME280;10712;52.944;9.098;2022-08-21T06:00:08;101514.97;;;22.88;51.58
21109;BME280;10712;52.944;9.098;2022-08-21T06:02:40;101512.53;;;22.95;51.60
21109;BME280;10712;52.944;9.098;2022-08-21T06:05:07;101513.63;;;23.02;51.24
21109;BME280;10712;52.944;9.098;2022-08-21T06:07:33;101513.00;;;23.08;51.31
21109;BME280;10712;52.944;9.098;2022-08-21T06:09:59;101511.94;;;23.18;51.16
21109;BME280;10712;52.944;9.098;2022-08-21T06:12:25;101512.91;;;23.27;51.08
21109;BME280;10712;52.944;9.098;2022-08-21T06:14:51;101510.28;;;23.35;51.14
21109;BME280;10712;52.944;9.098;2022-08-21T06:17:18;101503.22;;;23.42;50.97
21109;BME280;10712;52.944;9.098;2022-08-21T06:19:44;101505.00;;;23.51;50.91
21109;BME280;10712;52.944;9.098;2022-08-21T06:22:10;101507.81;;;23.60;51.24
21109;BME280;10712;52.944;9.098;2022-08-21T06:24:36;101501.44;;;23.69;51.02
21109;BME280;10712;52.944;9.098;2022-08-21T06:27:08;101507.13;;;23.75;51.22
21109;BME280;10712;52.944;9.098;2022-08-21T06:29:35;101514.19;;;23.86;50.85
21109;BME280;10712;52.944;9.098;2022-08-21T06:32:01;101509.53;;;23.96;50.92
21109;BME280;10712;52.944;9.098;2022-08-21T06:34:28;101508.94;;;24.10;50.66
21109;BME280;10712;52.944;9.098;2022-08-21T06:36:54;101504.28;;;24.20;50.59
21109;BME280;10712;52.944;9.098;2022-08-21T06:39:20;101501.31;;;24.31;50.60
21109;BME280;10712;52.944;9.098;2022-08-21T06:41:45;101501.03;;;24.43;50.56
21109;BME280;10712;52.944;9.098;2022-08-21T06:44:11;101502.09;;;24.50;50.31
21109;BME280;10712;52.944;9.098;2022-08-21T06:46:37;101504.56;;;24.61;50.43
21109;BME280;10712;52.944;9.098;2022-08-21T06:49:04;101506.47;;;24.68;49.89
21109;BME280;10712;52.944;9.098;2022-08-21T06:51:30;101506.88;;;24.82;49.81
21109;BME280;10712;52.944;9.098;2022-08-21T06:53:56;101504.75;;;24.93;49.95
21109;BME280;10712;52.944;9.098;2022-08-21T06:56:22;101505.44;;;25.03;49.69
21109;BME280;10712;52.944;9.098;2022-08-21T06:58:48;101508.41;;;25.10;49.58
21109;BME280;10712;52.944;9.098;2022-08-21T07:01:14;101506.88;;;25.16;49.55
21109;BME280;10712;52.944;9.098;2022-08-21T07:03:42;101508.09;;;25.21;49.40
21109;BME280;10712;52.944;9.098;2022-08-21T07:06:10;101507.09;;;25.30;49.27
21109;BME280;10712;52.944;9.098;2022-08-21T07:08:37;101503.34;;;25.39;48.96
21109;BME280;10712;52.944;9.098;2022-08-21T07:11:14;101505.09;;;25.48;48.98
21109;BME280;10712;52.944;9.098;2022-08-21T07:13:40;101505.78;;;25.59;48.70
21109;BME280;10712;52.944;9.098;2022-08-21T07:16:06;101502.59;;;25.63;48.44
21109;BME280;10712;52.944;9.098;2022-08-21T07:18:34;101499.50;;;25.74;48.25
21109;BME280;10712;52.944;9.098;2022-08-21T07:21:03;101492.72;;;25.78;48.36
21109;BME280;10712;52.944;9.098;2022-08-21T07:23:44;101499.00;;;25.87;48.30
21109;BME280;10712;52.944;9.098;2022-08-21T07:26:18;101496.78;;;25.99;48.29
21109;BME280;10712;52.944;9.098;2022-08-21T07:28:45;101494.41;;;26.12;48.03
21109;BME280;10712;52.944;9.098;2022-08-21T07:31:15;101488.94;;;26.20;47.91
21109;BME280;10712;52.944;9.098;2022-08-21T07:33:43;101488.59;;;26.31;47.70
21109;BME280;10712;52.944;9.098;2022-08-21T07:36:10;101492.34;;;26.38;47.65
21109;BME280;10712;52.944;9.098;2022-08-21T07:38:36;101486.69;;;26.48;46.91
21109;BME280;10712;52.944;9.098;2022-08-21T07:41:19;101484.44;;;26.51;47.24
21109;BME280;10712;52.944;9.098;2022-08-21T07:43:45;101486.47;;;26.57;47.34
21109;BME280;10712;52.944;9.098;2022-08-21T07:46:11;101482.28;;;26.78;46.63
21109;BME280;10712;52.944;9.098;2022-08-21T07:48:38;101473.72;;;26.89;46.52
21109;BME280;10712;52.944;9.098;2022-08-21T07:51:13;101483.28;;;26.93;46.56
21109;BME280;10712;52.944;9.098;2022-08-21T07:53:39;101486.81;;;27.10;45.75
21109;BME280;10712;52.944;9.098;2022-08-21T07:56:08;101479.78;;;27.15;45.78
21109;BME280;10712;52.944;9.098;2022-08-21T07:58:36;101482.09;;;27.26;45.44
21109;BME280;10712;52.944;9.098;2022-08-21T08:01:02;101473.66;;;27.36;45.45
21109;BME280;10712;52.944;9.098;2022-08-21T08:03:28;101474.09;;;27.48;45.34
21109;BME280;10712;52.944;9.098;2022-08-21T08:05:54;101480.00;;;27.59;44.68
21109;BME280;10712;52.944;9.098;2022-08-21T08:08:20;101478.06;;;27.68;44.52
21109;BME280;10712;52.944;9.098;2022-08-21T08:10:46;101474.81;;;27.72;44.24
21109;BME280;10712;52.944;9.098;2022-08-21T08:13:11;101476.25;;;27.83;44.18
21109;BME280;10712;52.944;9.098;2022-08-21T08:15:37;101474.47;;;27.90;43.80
21109;BME280;10712;52.944;9.098;2022-08-21T08:18:04;101478.84;;;27.99;43.76
21109;BME280;10712;52.944;9.098;2022-08-21T08:20:29;101480.59;;;28.15;43.09
21109;BME280;10712;52.944;9.098;2022-08-21T08:22:56;101474.94;;;28.16;42.69
21109;BME280;10712;52.944;9.098;2022-08-21T08:25:23;101474.19;;;28.23;41.92
21109;BME280;10712;52.944;9.098;2022-08-21T08:27:49;101472.78;;;28.27;41.42
21109;BME280;10712;52.944;9.098;2022-08-21T08:30:18;101472.31;;;28.38;40.89
21109;BME280;10712;52.944;9.098;2022-08-21T08:32:46;101474.88;;;28.39;40.33
21109;BME280;10712;52.944;9.098;2022-08-21T08:35:12;101471.56;;;28.44;40.29
21109;BME280;10712;52.944;9.098;2022-08-21T08:37:40;101465.63;;;28.55;39.76
21109;BME280;10712;52.944;9.098;2022-08-21T08:40:20;101472.41;;;28.59;38.72
21109;BME280;10712;52.944;9.098;2022-08-21T08:42:48;101470.34;;;28.61;37.56
21109;BME280;10712;52.944;9.098;2022-08-21T08:45:20;101473.25;;;28.74;38.23
21109;BME280;10712;52.944;9.098;2022-08-21T08:48:03;101471.31;;;28.83;37.79
21109;BME280;10712;52.944;9.098;2022-08-21T08:50:52;101465.78;;;28.97;37.15
21109;BME280;10712;52.944;9.098;2022-08-21T08:53:33;101468.16;;;29.01;36.77
21109;BME280;10712;52.944;9.098;2022-08-21T08:56:04;101458.47;;;29.05;36.58
21109;BME280;10712;52.944;9.098;2022-08-21T08:58:38;101459.66;;;28.95;36.54
21109;BME280;10712;52.944;9.098;2022-08-21T09:01:18;101460.97;;;28.99;36.62
21109;BME280;10712;52.944;9.098;2022-08-21T09:03:47;101458.78;;;29.10;37.01
21109;BME280;10712;52.944;9.098;2022-08-21T09:10:20;101446.66;;;29.40;37.00
21109;BME280;10712;52.944;9.098;2022-08-21T09:16:16;101455.94;;;29.39;36.60
21109;BME280;10712;52.944;9.098;2022-08-21T09:19:23;101452.41;;;29.24;36.31
21109;BME280;10712;52.944;9.098;2022-08-21T09:22:08;101453.69;;;29.64;36.15
21109;BME280;10712;52.944;9.098;2022-08-21T09:25:20;101452.56;;;29.37;36.15
21109;BME280;10712;52.944;9.098;2022-08-21T09:27:47;101439.88;;;29.57;36.22
21109;BME280;10712;52.944;9.098;2022-08-21T09:30:14;101444.66;;;29.49;35.99
21109;BME280;10712;52.944;9.098;2022-08-21T09:32:41;101432.16;;;29.46;36.20
21109;BME280;10712;52.944;9.098;2022-08-21T09:35:17;101442.88;;;29.84;36.25
21109;BME280;10712;52.944;9.098;2022-08-21T09:38:06;101427.84;;;30.01;35.63
21109;BME280;10712;52.944;9.098;2022-08-21T09:40:39;101440.25;;;29.75;35.97
21109;BME280;10712;52.944;9.098;2022-08-21T09:43:18;101430.72;;;30.21;35.94
21109;BME280;10712;52.944;9.098;2022-08-21T09:45:47;101434.84;;;30.10;35.46
21109;BME280;10712;52.944;9.098;2022-08-21T09:48:25;101431.00;;;30.32;34.95
21109;BME280;10712;52.944;9.098;2022-08-21T09:50:52;101435.50;;;30.12;35.86
21109;BME280;10712;52.944;9.098;2022-08-21T09:53:30;101426.50;;;29.97;35.69
21109;BME280;10712;52.944;9.098;2022-08-21T09:56:02;101424.28;;;30.41;35.25
21109;BME280;10712;52.944;9.098;2022-08-21T09:58:49;101425.00;;;30.22;35.29
21109;BME280;10712;52.944;9.098;2022-08-21T10:01:24;101428.63;;;30.29;35.08
21109;BME280;10712;52.944;9.098;2022-08-21T10:04:11;101420.78;;;29.70;35.61
21109;BME280;10712;52.944;9.098;2022-08-21T10:06:38;101423.09;;;30.50;34.83
21109;BME280;10712;52.944;9.098;2022-08-21T10:09:17;101425.63;;;30.52;35.06
21109;BME280;10712;52.944;9.098;2022-08-21T10:14:59;101428.94;;;30.41;35.32
21109;BME280;10712;52.944;9.098;2022-08-21T10:17:47;101417.25;;;30.32;35.20
21109;BME280;10712;52.944;9.098;2022-08-21T10:20:38;101424.00;;;30.64;34.29
21109;BME280;10712;52.944;9.098;2022-08-21T10:23:26;101414.13;;;30.76;34.30
21109;BME280;10712;52.944;9.098;2022-08-21T10:29:18;101409.88;;;30.39;34.51
21109;BME280;10712;52.944;9.098;2022-08-21T10:35:00;101420.16;;;30.59;33.69
21109;BME280;10712;52.944;9.098;2022-08-21T10:40:21;101412.22;;;30.70;33.64
21109;BME280;10712;52.944;9.098;2022-08-21T10:48:47;101412.34;;;30.56;33.63
21109;BME280;10712;52.944;9.098;2022-08-21T10:51:26;101413.91;;;30.78;33.50
21109;BME280;10712;52.944;9.098;2022-08-21T10:54:04;101414.41;;;31.01;33.75
21109;BME280;10712;52.944;9.098;2022-08-21T10:56:38;101401.97;;;31.05;33.09
21109;BME280;10712;52.944;9.098;2022-08-21T10:59:23;101407.28;;;31.13;33.17
21109;BME280;10712;52.944;9.098;2022-08-21T11:04:55;101405.19;;;31.28;33.41
21109;BME280;10712;52.944;9.098;2022-08-21T11:07:36;101408.59;;;31.30;33.20
21109;BME280;10712;52.944;9.098;2022-08-21T11:10:34;101411.38;;;31.37;33.22
21109;BME280;10712;52.944;9.098;2022-08-21T11:13:05;101406.91;;;31.29;33.29
21109;BME280;10712;52.944;9.098;2022-08-21T11:16:03;101408.16;;;31.34;33.22
21109;BME280;10712;52.944;9.098;2022-08-21T11:27:36;101405.75;;;31.04;33.19
21109;BME280;10712;52.944;9.098;2022-08-21T11:30:07;101402.88;;;31.25;32.87
21109;BME280;10712;52.944;9.098;2022-08-21T11:45:59;101400.00;;;30.99;32.44
21109;BME280;10712;52.944;9.098;2022-08-21T11:49:03;101396.09;;;31.21;32.65
21109;BME280;10712;52.944;9.098;2022-08-21T11:52:21;101395.88;;;31.16;32.45
21109;BME280;10712;52.944;9.098;2022-08-21T11:58:32;101395.69;;;31.24;32.19
21109;BME280;10712;52.944;9.098;2022-08-21T12:01:17;101399.72;;;31.42;31.68
21109;BME280;10712;52.944;9.098;2022-08-21T12:06:52;101394.22;;;31.55;32.06
21109;BME280;10712;52.944;9.098;2022-08-21T12:12:05;101399.31;;;31.58;30.72
21109;BME280;10712;52.944;9.098;2022-08-21T12:17:34;101399.69;;;31.35;31.22
21109;BME280;10712;52.944;9.098;2022-08-21T12:23:02;101397.59;;;31.30;31.65
21109;BME280;10712;52.944;9.098;2022-08-21T12:25:47;101385.72;;;31.37;31.87
21109;BME280;10712;52.944;9.098;2022-08-21T12:28:25;101390.59;;;31.54;32.11
21109;BME280;10712;52.944;9.098;2022-08-21T12:30:52;101399.09;;;31.59;31.53
21109;BME280;10712;52.944;9.098;2022-08-21T12:33:25;101389.56;;;31.68;32.07
21109;BME280;10712;52.944;9.098;2022-08-21T12:36:17;101390.84;;;31.92;31.44
21109;BME280;10712;52.944;9.098;2022-08-21T12:39:15;101395.06;;;32.08;30.53
21109;BME280;10712;52.944;9.098;2022-08-21T12:42:00;101394.03;;;32.22;30.36
21109;BME280;10712;52.944;9.098;2022-08-21T12:44:51;101382.69;;;32.43;30.27
21109;BME280;10712;52.944;9.098;2022-08-21T12:47:49;101388.88;;;32.39;29.37
21109;BME280;10712;52.944;9.098;2022-08-21T12:53:11;101382.88;;;32.55;29.33
21109;BME280;10712;52.944;9.098;2022-08-21T12:55:42;101377.44;;;32.87;28.66
21109;BME280;10712;52.944;9.098;2022-08-21T12:58:22;101378.25;;;32.94;29.05
21109;BME280;10712;52.944;9.098;2022-08-21T13:01:02;101373.13;;;32.46;29.56
21109;BME280;10712;52.944;9.098;2022-08-21T13:03:30;101372.31;;;32.97;29.20
21109;BME280;10712;52.944;9.098;2022-08-21T13:05:58;101369.72;;;33.02;28.79
21109;BME280;10712;52.944;9.098;2022-08-21T13:08:26;101371.75;;;33.13;28.14
21109;BME280;10712;52.944;9.098;2022-08-21T13:11:01;101374.50;;;33.13;28.46
21109;BME280;10712;52.944;9.098;2022-08-21T13:13:28;101372.16;;;33.23;28.96
21109;BME280;10712;52.944;9.098;2022-08-21T13:16:04;101366.22;;;33.19;28.53
21109;BME280;10712;52.944;9.098;2022-08-21T13:18:34;101369.88;;;33.07;28.45
21109;BME280;10712;52.944;9.098;2022-08-21T13:21:34;101376.56;;;32.93;28.74
21109;BME280;10712;52.944;9.098;2022-08-21T13:24:24;101369.44;;;32.65;29.00
21109;BME280;10712;52.944;9.098;2022-08-21T13:26:51;101368.16;;;32.74;29.27
21109;BME280;10712;52.944;9.098;2022-08-21T13:29:21;101363.06;;;32.71;29.13
21109;BME280;10712;52.944;9.098;2022-08-21T13:31:57;101365.31;;;32.43;29.69
21109;BME280;10712;52.944;9.098;2022-08-21T13:34:35;101366.50;;;32.60;29.38
21109;BME280;10712;52.944;9.098;2022-08-21T13:37:08;101358.00;;;32.62;29.72
21109;BME280;10712;52.944;9.098;2022-08-21T13:39:34;101363.56;;;32.55;29.58
21109;BME280;10712;52.944;9.098;2022-08-21T13:42:03;101372.50;;;32.44;29.67
21109;BME280;10712;52.944;9.098;2022-08-21T13:44:52;101362.72;;;32.55;29.66
21109;BME280;10712;52.944;9.098;2022-08-21T13:47:20;101365.41;;;32.74;29.25
21109;BME280;10712;52.944;9.098;2022-08-21T13:49:49;101362.00;;;32.66;29.22
21109;BME280;10712;52.944;9.098;2022-08-21T13:52:26;101364.59;;;32.67;29.78
21109;BME280;10712;52.944;9.098;2022-08-21T13:55:08;101360.50;;;32.83;29.21
21109;BME280;10712;52.944;9.098;2022-08-21T13:57:35;101366.16;;;32.37;29.43
21109;BME280;10712;52.944;9.098;2022-08-21T14:02:44;101370.28;;;32.72;28.75
21109;BME280;10712;52.944;9.098;2022-08-21T14:05:31;101360.56;;;32.70;29.42
21109;BME280;10712;52.944;9.098;2022-08-21T14:08:12;101358.38;;;32.78;29.10
21109;BME280;10712;52.944;9.098;2022-08-21T14:10:48;101353.28;;;32.82;28.92
21109;BME280;10712;52.944;9.098;2022-08-21T14:13:38;101355.75;;;32.97;28.55
21109;BME280;10712;52.944;9.098;2022-08-21T14:16:24;101355.31;;;32.93;29.01
21109;BME280;10712;52.944;9.098;2022-08-21T14:19:08;101361.81;;;33.12;28.66
21109;BME280;10712;52.944;9.098;2022-08-21T14:21:41;101347.34;;;33.41;28.19
21109;BME280;10712;52.944;9.098;2022-08-21T14:27:07;101347.50;;;33.53;27.89
21109;BME280;10712;52.944;9.098;2022-08-21T14:29:40;101351.44;;;33.63;27.64